Time;durP1;ratioP1;P1;durP2;ratioP2;P2;SDS_P1;SDS_P2;PMS_P1;PMS_P2;Temp;Humidity;BMP_temperature;BMP_pressure;BME280_temperature;BME280_humidity;BME280_pressure;Samples;Min_cycle;Max_cycle;Signal;HPM_P1;HPM_P2
2023/10/29 00:00:08;;;;;;;3.25;1.58;;;;;;;9.35;91.57;98926.41;4839741;29;20045;-86
2023/10/29 00:02:37;;;;;;;1.73;1.45;;;;;;;9.38;91.76;98910.63;4839205;29;20058;-86
2023/10/29 00:05:10;;;;;;;4.47;1.63;;;;;;;9.39;91.63;98917.53;4829104;29;20052;-90
2023/10/29 00:07:39;;;;;;;2.92;1.73;;;;;;;9.39;91.68;98912.31;4846230;29;20055;-86
2023/10/29 00:10:09;;;;;;;3.13;1.52;;;;;;;9.40;91.55;98914.03;4853997;29;20052;-92
2023/10/29 00:12:36;;;;;;;2.50;1.80;;;;;;;9.38;91.39;98904.50;4873391;29;20430;-85
2023/10/29 00:15:11;;;;;;;3.90;1.67;;;;;;;9.40;91.08;98908.78;4841142;29;20066;-95
2023/10/29 00:17:41;;;;;;;2.58;2.00;;;;;;;9.46;91.19;98912.06;4778046;29;20140;-85
2023/10/29 00:20:09;;;;;;;3.58;2.22;;;;;;;9.47;91.34;98906.81;4797090;29;20108;-86
2023/10/29 00:22:38;;;;;;;3.67;2.20;;;;;;;9.47;90.88;98904.19;4836750;29;20057;-86
2023/10/29 00:25:10;;;;;;;4.22;2.55;;;;;;;9.50;90.89;98892.75;4835741;29;20044;-92
2023/10/29 00:27:59;;;;;;;4.88;2.72;;;;;;;9.45;90.70;98894.69;4726774;29;20050;-86
2023/10/29 00:30:28;;;;;;;3.45;2.42;;;;;;;9.51;90.56;98897.06;4788285;29;21629;-85
2023/10/29 00:33:01;;;;;;;4.22;2.17;;;;;;;9.49;90.33;98901.53;4802916;29;20512;-86
2023/10/29 00:35:30;;;;;;;3.25;1.92;;;;;;;9.51;90.40;98902.31;4784097;29;20057;-87
2023/10/29 00:37:57;;;;;;;3.53;2.10;;;;;;;9.43;90.45;98902.59;4834775;29;20089;-86
2023/10/29 00:40:25;;;;;;;3.33;2.00;;;;;;;9.41;90.56;98896.53;4835041;29;20077;-88
2023/10/29 00:42:52;;;;;;;3.75;2.05;;;;;;;9.36;90.62;98885.38;4855725;29;20064;-86
2023/10/29 00:45:19;;;;;;;2.50;1.48;;;;;;;9.39;90.54;98874.81;4828928;29;20158;-86
2023/10/29 00:47:46;;;;;;;2.65;1.73;;;;;;;9.34;90.66;98880.22;4865006;29;20144;-89
2023/10/29 00:50:13;;;;;;;3.83;1.95;;;;;;;9.31;90.90;98882.94;4831615;29;20084;-86
2023/10/29 00:52:40;;;;;;;2.97;1.70;;;;;;;9.32;90.78;98883.78;4845356;29;20057;-87
2023/10/29 00:55:08;;;;;;;2.60;1.80;;;;;;;9.27;90.98;98873.47;4848969;29;20048;-87
2023/10/29 00:57:37;;;;;;;2.65;1.83;;;;;;;9.29;90.84;98870.81;4831479;29;20109;-85
2023/10/29 01:00:08;;;;;;;4.10;1.90;;;;;;;9.24;90.80;98881.44;4838298;29;20048;-86
2023/10/29 01:02:35;;;;;;;3.13;1.50;;;;;;;9.23;90.68;98877.09;4831819;29;20049;-86
2023/10/29 01:05:05;;;;;;;3.55;1.80;;;;;;;9.23;90.83;98879.72;4851160;29;20073;-94
2023/10/29 01:07:33;;;;;;;2.17;1.48;;;;;;;9.23;90.50;98879.72;4841255;29;20049;-87
2023/10/29 01:10:00;;;;;;;1.80;1.42;;;;;;;9.26;90.75;98884.00;4850085;29;20053;-85
2023/10/29 01:12:28;;;;;;;4.20;1.60;;;;;;;9.27;91.05;98873.47;4875887;29;20053;-86
2023/10/29 01:14:56;;;;;;;2.15;1.40;;;;;;;9.22;91.13;98864.91;4858616;29;20139;-86
2023/10/29 01:17:23;;;;;;;2.05;1.48;;;;;;;9.21;90.93;98866.69;4842955;29;20053;-85
2023/10/29 01:19:51;;;;;;;3.03;1.15;;;;;;;9.22;91.07;98860.56;4848862;29;20047;-85
2023/10/29 01:22:18;;;;;;;1.50;1.25;;;;;;;9.26;91.24;98842.97;4861047;29;20124;-86
2023/10/29 01:24:45;;;;;;;2.50;1.35;;;;;;;9.20;91.04;98843.19;4849448;29;20135;-93
2023/10/29 01:27:13;;;;;;;2.30;1.10;;;;;;;9.19;90.93;98847.53;4855092;29;20057;-86
2023/10/29 01:29:39;;;;;;;2.05;1.30;;;;;;;9.18;91.31;98842.38;4867213;29;20061;-86
2023/10/29 01:32:07;;;;;;;2.95;1.40;;;;;;;9.18;91.27;98830.16;4855827;29;20048;-96
2023/10/29 01:34:34;;;;;;;2.33;1.10;;;;;;;9.17;91.75;98824.97;4849637;29;20054;-85
2023/10/29 01:37:02;;;;;;;4.65;1.45;;;;;;;9.22;90.93;98817.78;4852987;29;20063;-85
2023/10/29 01:39:29;;;;;;;2.30;1.40;;;;;;;9.23;91.07;98811.66;4851544;29;20048;-83
2023/10/29 01:41:57;;;;;;;3.47;1.40;;;;;;;9.23;91.21;98807.28;4866688;29;20060;-83
2023/10/29 01:44:25;;;;;;;2.60;1.30;;;;;;;9.24;91.08;98805.53;4854480;29;20053;-82
2023/10/29 01:46:51;;;;;;;3.75;1.10;;;;;;;9.24;91.13;98800.28;4862885;29;20053;-84
2023/10/29 01:49:18;;;;;;;2.03;1.10;;;;;;;9.22;90.96;98804.72;4854046;29;20059;-84
2023/10/29 01:51:45;;;;;;;2.88;1.30;;;;;;;9.25;90.54;98799.34;4853780;29;20061;-83
2023/10/29 01:54:12;;;;;;;2.35;0.80;;;;;;;9.28;90.54;98793.16;4853494;29;20060;-84
2023/10/29 01:56:39;;;;;;;3.20;1.30;;;;;;;9.29;90.32;98777.41;4848279;29;20057;-83
2023/10/29 01:59:05;;;;;;;1.63;1.15;;;;;;;9.28;90.32;98786.16;4863588;29;20085;-81
2023/10/29 02:01:32;;;;;;;0.98;0.90;;;;;;;9.26;90.14;98784.53;4858736;29;20059;-83
2023/10/29 02:03:59;;;;;;;1.58;0.90;;;;;;;9.25;90.31;98788.88;4856314;29;20090;-84
2023/10/29 02:06:26;;;;;;;3.72;1.20;;;;;;;9.21;90.33;98777.69;4854833;29;20537;-83
2023/10/29 02:08:53;;;;;;;3.92;1.08;;;;;;;9.21;90.54;98768.97;4872574;29;20502;-84
2023/10/29 02:11:20;;;;;;;1.85;1.08;;;;;;;9.19;90.31;98763.78;4857462;29;20055;-84
2023/10/29 02:13:47;;;;;;;2.05;1.20;;;;;;;9.15;90.18;98745.63;4863703;29;20052;-83
2023/10/29 02:16:14;;;;;;;2.08;1.20;;;;;;;9.15;90.57;98745.63;4856296;29;20049;-83
2023/10/29 02:18:41;;;;;;;2.15;1.20;;;;;;;9.11;90.51;98739.69;4870913;29;20061;-82
2023/10/29 02:21:07;;;;;;;3.15;1.58;;;;;;;9.09;90.79;98746.72;4851676;29;20054;-84
2023/10/29 02:23:34;;;;;;;2.35;1.25;;;;;;;9.11;90.70;98772.81;4862447;29;20053;-84
2023/10/29 02:26:01;;;;;;;1.50;1.13;;;;;;;9.12;90.76;98782.41;4863599;29;20049;-82
2023/10/29 02:28:28;;;;;;;2.85;1.60;;;;;;;9.13;90.81;98782.34;4849192;29;20085;-84
2023/10/29 02:30:54;;;;;;;4.22;1.27;;;;;;;9.16;90.65;98781.38;4869015;29;20064;-84
2023/10/29 02:33:21;;;;;;;1.98;1.55;;;;;;;9.13;90.48;98789.34;4858401;29;20067;-83
2023/10/29 02:35:49;;;;;;;2.83;1.35;;;;;;;9.16;90.87;98794.47;4870551;29;20163;-83
2023/10/29 02:38:18;;;;;;;1.55;1.20;;;;;;;9.12;91.12;98798.09;4867735;29;20060;-84
2023/10/29 02:40:45;;;;;;;3.38;1.70;;;;;;;9.15;91.08;98798.84;4862825;29;20060;-83
2023/10/29 02:43:13;;;;;;;3.20;2.00;;;;;;;9.12;91.17;98788.47;4864856;29;20049;-83
2023/10/29 02:45:41;;;;;;;5.88;2.42;;;;;;;9.16;91.71;98781.38;4846717;29;20054;-84
2023/10/29 02:48:08;;;;;;;2.92;1.90;;;;;;;9.11;91.23;98772.81;4842607;29;20065;-84
2023/10/29 02:50:38;;;;;;;3.70;2.00;;;;;;;9.09;91.07;98766.81;4853397;29;20137;-84
2023/10/29 02:53:05;;;;;;;3.85;2.33;;;;;;;9.10;91.25;98768.53;4859714;29;20049;-84
2023/10/29 02:55:32;;;;;;;3.15;1.70;;;;;;;9.05;91.17;98772.16;4861400;29;20049;-84
2023/10/29 02:57:58;;;;;;;2.97;1.83;;;;;;;9.04;91.13;98786.13;4868143;29;20049;-84
2023/10/29 03:00:25;;;;;;;5.03;2.03;;;;;;;9.09;91.25;98788.59;4863459;29;22327;-83
2023/10/29 03:02:52;;;;;;;4.07;1.92;;;;;;;9.09;91.01;98803.44;4865189;29;20057;-84
2023/10/29 03:05:19;;;;;;;3.10;1.80;;;;;;;9.08;91.07;98796.50;4863742;29;20053;-83
2023/10/29 03:07:48;;;;;;;2.80;1.80;;;;;;;9.07;91.28;98794.78;4873501;29;20064;-84
2023/10/29 03:10:14;;;;;;;4.50;1.98;;;;;;;9.08;91.07;98796.50;4861769;29;20045;-84
2023/10/29 03:12:41;;;;;;;5.68;2.40;;;;;;;9.07;91.31;98789.53;4866818;29;20053;-84
2023/10/29 03:15:08;;;;;;;3.25;1.73;;;;;;;9.10;91.14;98802.53;4854599;29;20049;-84
2023/10/29 03:17:35;;;;;;;3.90;2.13;;;;;;;9.11;91.04;98809.47;4864374;29;20054;-83
2023/10/29 03:20:02;;;;;;;4.32;1.95;;;;;;;9.11;91.17;98801.59;4857230;29;20121;-83
2023/10/29 03:22:29;;;;;;;2.78;1.80;;;;;;;9.11;91.12;98804.22;4849144;29;20060;-84
2023/10/29 03:24:56;;;;;;;2.08;1.55;;;;;;;9.12;91.13;98798.94;4865443;29;20053;-84
2023/10/29 03:27:23;;;;;;;2.90;1.92;;;;;;;9.12;90.84;98798.94;4846744;29;20112;-84
2023/10/29 03:29:50;;;;;;;3.60;1.90;;;;;;;9.15;91.22;98792.75;4861427;29;20053;-83
2023/10/29 03:32:16;;;;;;;5.63;2.15;;;;;;;9.17;90.92;98806.66;4844009;29;20049;-83
2023/10/29 03:34:43;;;;;;;2.20;1.55;;;;;;;9.18;91.00;98813.56;4854633;29;20086;-84
2023/10/29 03:37:10;;;;;;;3.50;1.83;;;;;;;9.20;90.73;98815.22;4861213;29;20045;-84
2023/10/29 03:39:37;;;;;;;2.40;1.73;;;;;;;9.22;90.54;98815.19;4862057;29;20059;-84
2023/10/29 03:42:03;;;;;;;3.70;1.70;;;;;;;9.25;90.43;98819.47;4863689;29;20061;-84
2023/10/29 03:44:31;;;;;;;1.95;1.40;;;;;;;9.25;90.12;98811.59;4860994;29;20059;-83
2023/10/29 03:46:57;;;;;;;2.25;1.77;;;;;;;9.27;90.01;98801.91;4866547;29;20053;-84
2023/10/29 03:49:24;;;;;;;3.25;1.58;;;;;;;9.24;89.77;98797.69;4863585;29;20121;-84
2023/10/29 03:51:51;;;;;;;2.95;1.48;;;;;;;9.25;89.91;98793.28;4866676;29;20053;-84
2023/10/29 03:54:18;;;;;;;1.65;1.40;;;;;;;9.21;89.74;98798.63;4861613;29;20049;-82
2023/10/29 03:56:45;;;;;;;2.47;1.60;;;;;;;9.25;90.23;98803.75;4866923;29;20060;-84
2023/10/29 03:59:11;;;;;;;1.80;1.27;;;;;;;9.21;89.84;98810.84;4850236;29;20137;-84
2023/10/29 04:01:38;;;;;;;1.98;1.30;;;;;;;9.24;89.72;98813.38;4878439;29;20053;-84
2023/10/29 04:04:05;;;;;;;2.75;1.60;;;;;;;9.22;89.82;98817.78;4851276;29;20125;-83
2023/10/29 04:06:32;;;;;;;4.47;1.63;;;;;;;9.19;89.93;98810.91;4859906;29;20058;-82
2023/10/29 04:08:59;;;;;;;2.95;1.52;;;;;;;9.23;89.74;98816.91;4847404;29;20053;-84
2023/10/29 04:11:26;;;;;;;2.25;1.45;;;;;;;9.22;89.85;98820.41;4851730;29;20061;-84
2023/10/29 04:13:53;;;;;;;2.80;1.50;;;;;;;9.23;89.57;98827.38;4861271;29;20109;-83
2023/10/29 04:16:20;;;;;;;2.72;1.23;;;;;;;9.26;89.21;98829.03;4860468;29;20051;-84
2023/10/29 04:18:47;;;;;;;3.28;1.35;;;;;;;9.26;89.21;98829.03;4871114;29;20137;-83
2023/10/29 04:21:13;;;;;;;2.83;1.00;;;;;;;9.27;89.87;98813.25;4860075;29;20046;-84
2023/10/29 04:23:40;;;;;;;2.38;1.30;;;;;;;9.27;89.75;98821.13;4862671;29;20092;-84
2023/10/29 04:26:07;;;;;;;3.38;1.65;;;;;;;9.30;89.57;98817.50;4858910;29;20084;-83
2023/10/29 04:28:34;;;;;;;2.67;1.15;;;;;;;9.38;88.79;98812.88;4860913;29;20064;-83
2023/10/29 04:31:01;;;;;;;1.65;1.17;;;;;;;9.37;89.04;98800.69;4867087;29;20053;-84
2023/10/29 04:33:28;;;;;;;1.40;0.90;;;;;;;9.38;88.72;98800.66;4862899;29;20191;-84
2023/10/29 04:35:55;;;;;;;2.75;0.82;;;;;;;9.43;88.18;98802.22;4867238;29;20052;-84
2023/10/29 04:38:22;;;;;;;1.48;0.90;;;;;;;9.44;87.62;98809.19;4857463;29;20064;-84
2023/10/29 04:40:49;;;;;;;1.58;0.77;;;;;;;9.47;87.72;98806.44;4858743;29;20053;-84
2023/10/29 04:43:15;;;;;;;2.38;1.08;;;;;;;9.45;87.46;98816.13;4859960;29;20053;-84
2023/10/29 04:45:42;;;;;;;2.40;0.95;;;;;;;9.48;87.70;98813.41;4848974;29;20061;-84
2023/10/29 04:48:09;;;;;;;2.50;1.10;;;;;;;9.48;87.49;98816.00;4854671;29;20049;-82
2023/10/29 04:50:38;;;;;;;2.55;0.90;;;;;;;9.45;87.85;98810.88;4866819;29;20139;-84
2023/10/29 04:53:04;;;;;;;2.67;1.25;;;;;;;9.46;88.65;98816.06;4867750;29;20044;-84
2023/10/29 04:55:31;;;;;;;2.05;0.90;;;;;;;9.48;88.32;98823.88;4855462;29;20059;-83
2023/10/29 04:57:58;;;;;;;2.33;1.10;;;;;;;9.53;87.61;98814.94;4857192;29;20065;-84
2023/10/29 05:00:25;;;;;;;2.63;0.82;;;;;;;9.51;87.91;98811.50;4848474;29;20048;-84
2023/10/29 05:02:52;;;;;;;1.77;0.77;;;;;;;9.54;87.91;98815.78;4865500;29;20470;-84
2023/10/29 05:05:19;;;;;;;1.23;0.73;;;;;;;9.54;87.71;98806.19;4861158;29;20053;-83
2023/10/29 05:07:45;;;;;;;2.05;0.80;;;;;;;9.62;86.86;98811.13;4853107;29;20054;-83
2023/10/29 05:10:13;;;;;;;2.90;0.90;;;;;;;9.63;87.01;98815.47;4835370;29;20059;-84
2023/10/29 05:12:40;;;;;;;2.88;0.90;;;;;;;9.70;86.53;98816.06;4854345;29;20060;-84
2023/10/29 05:15:08;;;;;;;1.88;0.90;;;;;;;9.68;86.60;98816.13;4854244;29;20077;-84
2023/10/29 05:17:34;;;;;;;2.20;0.93;;;;;;;9.69;87.22;98811.72;4866849;29;20125;-84
2023/10/29 05:20:03;;;;;;;1.58;0.70;;;;;;;9.64;87.70;98817.16;4855842;29;20067;-83
2023/10/29 05:22:29;;;;;;;1.38;0.93;;;;;;;9.60;88.03;98820.78;4860033;29;20428;-84
2023/10/29 05:24:56;;;;;;;2.78;1.02;;;;;;;9.57;88.16;98815.66;4858007;29;20053;-84
2023/10/29 05:27:23;;;;;;;2.53;1.10;;;;;;;9.56;87.88;98809.59;4855704;29;20073;-85
2023/10/29 05:29:50;;;;;;;1.65;1.30;;;;;;;9.57;88.52;98811.31;4859990;29;20060;-84
2023/10/29 05:32:17;;;;;;;2.22;1.10;;;;;;;9.55;87.74;98827.97;4857997;29;20146;-84
2023/10/29 05:34:44;;;;;;;2.63;1.23;;;;;;;9.54;88.09;98823.63;4867165;29;20057;-85
2023/10/29 05:37:11;;;;;;;2.25;0.70;;;;;;;9.56;88.38;98824.44;4851599;29;20053;-85
2023/10/29 05:39:38;;;;;;;1.10;1.00;;;;;;;9.57;88.27;98829.63;4858981;29;20060;-85
2023/10/29 05:42:04;;;;;;;4.65;1.17;;;;;;;9.62;88.21;98837.31;4867857;29;20139;-85
2023/10/29 05:44:31;;;;;;;1.05;0.75;;;;;;;9.66;88.15;98836.28;4848179;29;20106;-84
2023/10/29 05:46:58;;;;;;;2.97;1.00;;;;;;;9.83;87.39;98832.19;4866808;29;20052;-83
2023/10/29 05:49:25;;;;;;;1.80;0.80;;;;;;;9.90;87.19;98833.66;4871431;29;20049;-84
2023/10/29 05:51:52;;;;;;;3.63;1.40;;;;;;;9.89;87.75;98829.31;4846072;29;20057;-85
2023/10/29 05:54:19;;;;;;;1.08;0.73;;;;;;;10.01;87.80;98833.28;4864180;29;20056;-86
2023/10/29 05:56:46;;;;;;;0.73;0.70;;;;;;;10.01;87.55;98847.22;4849587;29;20121;-85
2023/10/29 05:59:13;;;;;;;1.60;0.60;;;;;;;10.15;87.89;98854.53;4833954;29;20049;-84
2023/10/29 06:01:39;;;;;;;1.02;0.63;;;;;;;10.29;87.07;98867.13;4860914;29;20079;-84
2023/10/29 06:04:06;;;;;;;1.77;0.70;;;;;;;10.24;87.43;98863.84;4846627;29;20144;-85
2023/10/29 06:06:34;;;;;;;1.02;0.60;;;;;;;10.34;86.52;98874.81;4854187;29;20056;-84
2023/10/29 06:09:01;;;;;;;2.67;0.80;;;;;;;10.20;87.43;98873.56;4857041;29;20064;-83
2023/10/29 06:11:46;;;;;;;1.45;0.90;;;;;;;10.24;87.96;98882.19;4850913;29;20124;-85
2023/10/29 06:14:13;;;;;;;2.20;0.60;;;;;;;10.33;87.98;98888.84;4870486;29;20073;-86
2023/10/29 06:16:40;;;;;;;1.15;0.50;;;;;;;10.67;86.83;98892.78;4862491;29;20060;-85
2023/10/29 06:19:07;;;;;;;1.20;0.55;;;;;;;10.88;86.12;98884.03;4859864;29;20057;-82
2023/10/29 06:21:34;;;;;;;2.35;0.90;;;;;;;10.87;86.77;98894.59;4845059;29;20055;-82
2023/10/29 06:24:01;;;;;;;3.60;0.63;;;;;;;11.26;85.55;98894.69;4867037;29;20053;-82
2023/10/29 06:26:28;;;;;;;2.45;0.90;;;;;;;11.27;86.52;98900.81;4853116;29;20053;-83
2023/10/29 06:28:55;;;;;;;1.00;0.60;;;;;;;11.51;86.66;98885.75;4866715;29;20136;-83
2023/10/29 06:31:28;;;;;;;3.88;0.80;;;;;;;11.55;86.56;98897.84;4875202;29;20061;-84
2023/10/29 06:33:55;;;;;;;2.58;0.70;;;;;;;11.66;86.07;98906.13;4856041;29;20046;-83
2023/10/29 06:36:22;;;;;;;0.85;0.50;;;;;;;11.66;86.34;98906.13;4851084;29;20099;-83
2023/10/29 06:38:48;;;;;;;1.50;0.50;;;;;;;11.71;86.54;98911.16;4866494;29;20117;-83
2023/10/29 06:41:18;;;;;;;2.22;0.50;;;;;;;11.67;86.69;98914.84;4861907;29;20049;-84
2023/10/29 06:43:45;;;;;;;0.35;0.35;;;;;;;11.63;86.99;98918.56;4866288;29;20064;-83
2023/10/29 06:46:12;;;;;;;0.68;0.52;;;;;;;11.63;87.38;98913.28;4860173;29;20048;-82
2023/10/29 06:48:41;;;;;;;2.05;0.40;;;;;;;11.63;87.65;98926.44;4850701;29;20060;-83
2023/10/29 06:51:11;;;;;;;0.82;0.43;;;;;;;11.51;88.42;98926.94;4861481;29;20056;-83
2023/10/29 06:53:38;;;;;;;1.75;0.40;;;;;;;11.47;88.45;98928.84;4864066;29;20063;-83
2023/10/29 06:56:06;;;;;;;0.82;0.40;;;;;;;11.40;88.92;98930.88;4856968;29;20068;-83
2023/10/29 06:58:33;;;;;;;1.65;0.50;;;;;;;11.53;88.48;98932.97;4852364;29;20048;-82
2023/10/29 07:01:08;;;;;;;1.63;0.50;;;;;;;11.51;88.71;98940.09;4856276;28;20055;-82
2023/10/29 07:03:38;;;;;;;1.00;0.40;;;;;;;11.54;88.62;98947.81;4862598;28;20056;-84
2023/10/29 07:06:09;;;;;;;0.50;0.45;;;;;;;11.53;88.87;98941.72;4852947;29;20068;-84
2023/10/29 07:08:36;;;;;;;1.52;0.43;;;;;;;11.51;89.26;98932.19;4853907;29;20049;-83
2023/10/29 07:11:04;;;;;;;0.88;0.60;;;;;;;11.48;89.46;98927.94;4856417;29;20065;-83
2023/10/29 07:13:31;;;;;;;2.72;0.30;;;;;;;11.51;89.09;98914.66;4850420;29;20093;-83
2023/10/29 07:16:00;;;;;;;0.80;0.38;;;;;;;11.59;89.01;98914.34;4858531;29;20468;-83
2023/10/29 07:18:27;;;;;;;1.52;0.63;;;;;;;11.51;89.45;98900.69;4862248;29;20132;-85
2023/10/29 07:20:55;;;;;;;0.73;0.40;;;;;;;11.47;89.65;98918.31;4857200;29;20059;-82
2023/10/29 07:23:23;;;;;;;1.95;0.50;;;;;;;11.46;90.03;98914.03;4846357;29;20058;-84
2023/10/29 07:25:50;;;;;;;3.22;0.50;;;;;;;11.52;89.56;98897.13;4863175;29;20053;-86
2023/10/29 07:28:17;;;;;;;0.75;0.30;;;;;;;11.56;89.15;98894.31;4842428;29;20081;-82
2023/10/29 07:30:44;;;;;;;0.50;0.43;;;;;;;11.53;89.27;98885.69;4855410;29;20075;-84
2023/10/29 07:33:11;;;;;;;2.28;1.00;;;;;;;11.54;89.99;98900.53;4854744;29;20057;-84
2023/10/29 07:35:39;;;;;;;0.40;0.30;;;;;;;11.49;89.90;98904.22;4859634;29;20053;-84
2023/10/29 07:38:07;;;;;;;2.65;1.58;;;;;;;11.45;90.30;98886.88;4861777;29;20071;-82
2023/10/29 07:40:36;;;;;;;3.33;0.60;;;;;;;11.44;90.80;98884.31;4855120;29;20092;-86
2023/10/29 07:43:06;;;;;;;2.88;0.45;;;;;;;11.42;91.02;98878.28;4860071;29;20436;-84
2023/10/29 07:45:32;;;;;;;3.45;0.80;;;;;;;11.41;91.10;98873.94;4852607;29;20068;-82
2023/10/29 07:48:00;;;;;;;1.95;0.90;;;;;;;11.36;91.21;98861.03;4850554;29;20057;-84
2023/10/29 07:50:27;;;;;;;2.83;0.70;;;;;;;11.33;91.05;98865.56;4859004;29;20053;-84
2023/10/29 07:52:54;;;;;;;1.58;0.85;;;;;;;11.31;90.91;98878.75;4860904;29;20122;-84
2023/10/29 07:55:21;;;;;;;1.77;0.65;;;;;;;11.34;90.63;98864.63;4853208;29;20054;-83
2023/10/29 07:57:47;;;;;;;1.65;0.77;;;;;;;11.32;90.46;98888.34;4861859;29;20053;-81
2023/10/29 08:00:15;;;;;;;0.65;0.60;;;;;;;11.29;90.31;98891.94;4832578;29;20056;-82
2023/10/29 08:02:44;;;;;;;1.75;0.60;;;;;;;11.33;90.22;98894.47;4846319;29;20053;-85
2023/10/29 08:05:11;;;;;;;2.72;0.88;;;;;;;11.26;90.36;98901.72;4857599;29;20136;-83
2023/10/29 08:07:39;;;;;;;1.85;0.80;;;;;;;11.24;90.04;98914.06;4843381;29;20135;-84
2023/10/29 08:10:07;;;;;;;1.95;0.68;;;;;;;11.28;90.48;98915.63;4851656;29;20088;-81
2023/10/29 08:12:37;;;;;;;1.05;0.80;;;;;;;11.29;90.07;98912.09;4877667;29;20044;-83
2023/10/29 08:15:04;;;;;;;1.58;0.68;;;;;;;11.28;90.15;98916.50;4863250;29;20059;-84
2023/10/29 08:17:31;;;;;;;1.15;0.55;;;;;;;11.29;90.24;98922.59;4853080;29;20053;-84
2023/10/29 08:19:58;;;;;;;1.83;0.80;;;;;;;11.32;90.03;98927.72;4856797;29;20067;-84
2023/10/29 08:22:26;;;;;;;1.17;0.60;;;;;;;11.34;89.80;98919.78;4838962;29;20053;-84
2023/10/29 08:24:53;;;;;;;2.10;0.75;;;;;;;11.37;89.99;98912.63;4843196;29;20053;-83
2023/10/29 08:27:20;;;;;;;0.60;0.50;;;;;;;11.45;89.46;98901.78;4857162;29;20044;-84
2023/10/29 08:29:48;;;;;;;1.58;0.70;;;;;;;11.47;89.10;98895.56;4862030;29;20063;-84
2023/10/29 08:32:15;;;;;;;1.48;0.45;;;;;;;11.51;89.52;98890.16;4853610;28;20073;-84
2023/10/29 08:34:42;;;;;;;0.88;0.65;;;;;;;11.51;89.84;98890.16;4857384;29;20053;-83
2023/10/29 08:37:10;;;;;;;1.55;0.60;;;;;;;11.38;89.73;98890.69;4839061;29;20052;-84
2023/10/29 08:39:37;;;;;;;1.95;0.70;;;;;;;11.40;89.81;98878.34;4843329;29;20061;-83
2023/10/29 08:42:05;;;;;;;2.17;0.60;;;;;;;11.41;89.95;98882.69;4841917;29;20162;-84
2023/10/29 08:44:32;;;;;;;1.95;0.80;;;;;;;11.36;89.40;98889.91;4850084;28;20072;-83
2023/10/29 08:46:59;;;;;;;1.08;0.60;;;;;;;11.41;89.40;98894.97;4855152;29;20061;-85
2023/10/29 08:49:26;;;;;;;1.98;0.70;;;;;;;11.41;89.35;98895.84;4841267;29;20133;-83
2023/10/29 08:51:53;;;;;;;4.00;0.77;;;;;;;11.41;89.76;98911.59;4852654;29;20336;-83
2023/10/29 08:54:19;;;;;;;0.80;0.50;;;;;;;11.42;89.85;98920.31;4856132;29;20065;-83
2023/10/29 08:56:46;;;;;;;1.83;0.70;;;;;;;11.43;89.70;98917.63;4857880;29;20049;-84
2023/10/29 08:59:15;;;;;;;0.85;0.85;;;;;;;11.45;89.87;98913.16;4840278;29;20080;-83
2023/10/29 09:01:43;;;;;;;1.33;0.60;;;;;;;11.49;89.88;98901.59;4848565;29;20049;-84
2023/10/29 09:04:13;;;;;;;2.28;1.00;;;;;;;11.51;89.87;98901.53;4837806;29;20053;-84
2023/10/29 09:06:40;;;;;;;0.60;0.55;;;;;;;11.57;89.97;98903.03;4850016;29;20094;-84
2023/10/29 09:09:08;;;;;;;1.02;0.70;;;;;;;11.55;89.94;98912.75;4859169;29;20120;-83
2023/10/29 09:11:36;;;;;;;1.40;0.57;;;;;;;11.54;90.07;98917.16;4859170;29;20104;-84
2023/10/29 09:14:04;;;;;;;0.60;0.57;;;;;;;11.53;90.13;98914.59;4855953;29;20089;-84
2023/10/29 09:16:31;;;;;;;1.73;0.77;;;;;;;11.47;90.10;98906.06;4833115;29;20065;-83
2023/10/29 09:18:58;;;;;;;4.22;0.80;;;;;;;11.47;90.39;98913.06;4849578;29;20053;-84
2023/10/29 09:21:25;;;;;;;2.33;0.50;;;;;;;11.35;90.36;98922.34;4871097;29;20060;-83
2023/10/29 09:23:52;;;;;;;0.60;0.60;;;;;;;11.35;90.23;98932.84;4862756;29;20186;-84
2023/10/29 09:26:19;;;;;;;1.27;0.80;;;;;;;11.26;90.45;98941.13;4850247;29;20144;-83
2023/10/29 09:28:46;;;;;;;1.90;1.00;;;;;;;11.22;90.58;98944.78;4865069;29;20494;-84
2023/10/29 09:31:16;;;;;;;1.20;1.00;;;;;;;11.21;90.59;98940.44;4857664;29;20077;-83
2023/10/29 09:33:47;;;;;;;1.67;0.90;;;;;;;11.23;91.08;98939.47;4860575;29;20172;-84
2023/10/29 09:36:13;;;;;;;1.67;0.90;;;;;;;11.27;91.12;98942.84;4857018;29;20052;-84
2023/10/29 09:38:42;;;;;;;2.35;0.70;;;;;;;11.29;91.27;98943.63;4862393;29;20072;-84
2023/10/29 09:41:09;;;;;;;1.92;0.93;;;;;;;11.26;91.22;98936.72;4863482;29;20067;-85
2023/10/29 09:43:40;;;;;;;1.80;0.65;;;;;;;11.22;91.36;98937.75;4863924;29;20045;-85
2023/10/29 09:46:09;;;;;;;1.15;1.05;;;;;;;11.11;91.46;98935.59;4864731;29;20516;-86
2023/10/29 09:48:37;;;;;;;2.40;1.00;;;;;;;11.12;91.52;98926.81;4852226;29;20053;-85
2023/10/29 09:51:05;;;;;;;1.63;0.80;;;;;;;11.08;91.69;98924.34;4875285;29;20061;-84
2023/10/29 09:53:36;;;;;;;1.73;0.88;;;;;;;11.03;91.65;98929.78;4870575;29;20076;-83
2023/10/29 09:56:08;;;;;;;1.27;0.93;;;;;;;11.01;91.51;98934.25;4863890;29;20181;-81
2023/10/29 09:58:35;;;;;;;3.80;0.80;;;;;;;10.99;91.79;98933.44;4850173;29;20056;-84
2023/10/29 10:01:05;;;;;;;2.10;1.08;;;;;;;11.01;91.86;98939.50;4834362;29;20128;-84
2023/10/29 10:03:32;;;;;;;4.07;1.23;;;;;;;10.94;92.06;98948.56;4847929;29;20056;-84
2023/10/29 10:06:00;;;;;;;0.98;0.80;;;;;;;11.01;91.87;98944.75;4856564;29;20088;-84
2023/10/29 10:08:29;;;;;;;2.42;1.15;;;;;;;11.08;91.91;98935.72;4845482;29;20069;-85
2023/10/29 10:10:57;;;;;;;1.83;1.10;;;;;;;10.98;91.94;98950.13;4874523;29;20061;-83
2023/10/29 10:13:44;;;;;;;2.55;1.30;;;;;;;10.98;91.95;98944.00;4855832;29;20052;-84
2023/10/29 10:16:13;;;;;;;2.28;1.27;;;;;;;10.98;92.03;98955.38;4840023;29;20049;-83
2023/10/29 10:21:47;;;;;;;2.30;1.20;;;;;;;10.96;91.99;98972.94;4831516;29;20449;-85
2023/10/29 10:24:14;;;;;;;2.60;1.10;;;;;;;11.00;91.88;98955.31;4847514;29;20048;-85
2023/10/29 10:26:41;;;;;;;1.40;1.00;;;;;;;11.04;91.92;98942.00;4854799;29;20061;-85
2023/10/29 10:29:08;;;;;;;2.67;1.27;;;;;;;10.99;91.70;98950.97;4859374;29;20051;-83
2023/10/29 10:31:35;;;;;;;2.33;0.80;;;;;;;11.06;91.90;98948.03;4850893;29;20055;-83
2023/10/29 10:34:15;;;;;;;2.28;1.00;;;;;;;11.17;91.89;98933.63;4860369;29;20057;-83
2023/10/29 10:36:46;;;;;;;2.42;1.10;;;;;;;11.12;91.66;98920.69;4856396;29;20068;-83
2023/10/29 10:39:13;;;;;;;2.58;0.90;;;;;;;11.16;91.63;98931.91;4862059;29;20059;-84
2023/10/29 10:41:45;;;;;;;1.85;0.80;;;;;;;11.09;91.81;98937.44;4862036;29;20516;-83
2023/10/29 10:44:16;;;;;;;1.02;0.70;;;;;;;11.16;91.44;98937.16;4859447;29;20141;-83
2023/10/29 10:46:51;;;;;;;2.13;1.00;;;;;;;11.09;91.52;98932.19;4858229;29;20060;-84
2023/10/29 10:49:19;;;;;;;3.08;1.00;;;;;;;11.16;91.29;98917.00;4852285;29;20050;-84
2023/10/29 10:51:48;;;;;;;1.45;1.08;;;;;;;11.19;91.08;98916.88;4846291;29;20058;-84
2023/10/29 10:54:19;;;;;;;1.20;0.75;;;;;;;11.30;91.47;98908.56;4855688;29;20053;-84
2023/10/29 10:56:48;;;;;;;2.75;0.75;;;;;;;11.34;91.20;98915.41;4853102;29;20064;-84
2023/10/29 10:59:15;;;;;;;1.15;0.70;;;;;;;11.47;91.12;98916.56;4853947;29;20049;-83
2023/10/29 11:01:42;;;;;;;1.13;0.80;;;;;;;11.39;91.01;98913.41;4869332;29;20053;-82
2023/10/29 11:04:10;;;;;;;1.10;0.73;;;;;;;11.45;91.20;98900.00;4858482;29;20068;-84
2023/10/29 11:06:39;;;;;;;3.35;1.02;;;;;;;11.35;90.86;98916.25;4862995;29;20055;-84
2023/10/29 11:09:12;;;;;;;2.30;1.20;;;;;;;11.44;90.76;98934.22;4858667;29;20091;-82
2023/10/29 11:11:49;;;;;;;1.15;0.90;;;;;;;11.42;90.82;98933.44;4873955;29;20053;-84
2023/10/29 11:14:18;;;;;;;2.58;0.95;;;;;;;11.55;90.89;98936.41;4853863;29;20113;-84
2023/10/29 11:17:01;;;;;;;1.40;1.10;;;;;;;11.51;90.50;98937.47;4849623;29;20045;-84
2023/10/29 11:19:43;;;;;;;5.03;1.30;;;;;;;11.66;90.33;98924.50;4866930;29;20049;-83
2023/10/29 11:22:18;;;;;;;2.63;1.38;;;;;;;11.79;90.35;98911.69;4858164;29;20059;-83
2023/10/29 11:25:04;;;;;;;2.05;1.10;;;;;;;11.85;90.28;98900.06;4865333;29;20060;-83
2023/10/29 11:27:44;;;;;;;1.58;1.00;;;;;;;11.73;89.61;98901.47;4851382;29;20057;-83
2023/10/29 11:30:13;;;;;;;2.08;1.33;;;;;;;11.86;89.55;98901.75;4848330;29;20053;-84
2023/10/29 11:32:42;;;;;;;3.60;1.20;;;;;;;11.98;89.60;98903.00;4854002;29;20429;-85
2023/10/29 11:35:26;;;;;;;1.80;0.90;;;;;;;11.76;88.98;98913.59;4858485;29;20144;-84
2023/10/29 11:37:53;;;;;;;1.15;1.08;;;;;;;11.60;89.02;98916.03;4862631;29;20060;-84
2023/10/29 11:40:23;;;;;;;1.85;1.17;;;;;;;11.65;89.45;98914.06;4869019;29;20059;-84
2023/10/29 11:42:53;;;;;;;4.10;0.93;;;;;;;11.66;89.23;98914.00;4862977;29;20063;-83